Time;durP1;ratioP1;P1;durP2;ratioP2;P2;SDS_P1;SDS_P2;PMS_P1;PMS_P2;Temp;Humidity;BMP_temperature;BMP_pressure;BME280_temperature;BME280_humidity;BME280_pressure;Samples;Min_cycle;Max_cycle;Signal;HPM_P1;HPM_P2
2022/03/14 00:02:25;;;;;;;;;;;;;;;;;;5142673;27;20324;-74
2022/03/14 00:04:51;;;;;;;;;;;;;;;;;;5142202;27;20281;-74
2022/03/14 00:07:17;;;;;;;;;;;;;;;;;;5160783;27;19915;-74
2022/03/14 00:09:42;;;;;;;;;;;;;;;;;;5141949;27;19907;-74
2022/03/14 00:12:10;;;;;;;;;;;;;;;;;;5160315;27;20257;-74
2022/03/14 00:14:35;;;;;;;;;;;;;;;;;;5159910;27;19915;-74
2022/03/14 00:17:11;;;;;;;;;;;;;;;;;;5141961;27;20001;-74
2022/03/14 00:19:36;;;;;;;;;;;;;;;;;;5142444;27;19907;-74
2022/03/14 00:22:04;;;;;;;;;;;;;;;;;;5141382;27;19943;-74
2022/03/14 00:24:29;;;;;;;;;;;;;;;;;;5141154;27;19907;-74
2022/03/14 00:26:55;;;;;;;;;;;;;;;;;;5124418;27;20223;-74
2022/03/14 00:29:21;;;;;;;;;;;;;;;;;;5141670;27;20258;-74
2022/03/14 00:31:47;;;;;;;;;;;;;;;;;;5124857;27;20005;-74
2022/03/14 00:34:14;;;;;;;;;;;;;;;;;;5141905;27;19986;-74
2022/03/14 00:36:42;;;;;;;;;;;;;;;;;;5141396;27;19915;-74
2022/03/14 00:39:08;;;;;;;;;;;;;;;;;;5141004;27;19907;-74
2022/03/14 00:41:34;;;;;;;;;;;;;;;;;;5159540;27;19914;-75
2022/03/14 00:44:00;;;;;;;;;;;;;;;;;;5141418;27;19957;-74
2022/03/14 00:46:26;;;;;;;;;;;;;;;;;;5141405;27;19907;-74
2022/03/14 00:48:51;;;;;;;;;;;;;;;;;;5152543;27;20546;-74
2022/03/14 00:51:17;;;;;;;;;;;;;;;;;;5159351;27;19949;-73
2022/03/14 00:53:43;;;;;;;;;;;;;;;;;;5159290;27;20327;-74
2022/03/14 00:56:09;;;;;;;;;;;;;;;;;;5158660;27;19907;-74
2022/03/14 00:58:35;;;;;;;;;;;;;;;;;;5159360;27;19914;-74
2022/03/14 01:01:01;;;;;;;;;;;;;;;;;;5141355;27;20190;-74
2022/03/14 01:03:27;;;;;;;;;;;;;;;;;;5158877;27;19952;-74
2022/03/14 01:05:52;;;;;;;;;;;;;;;;;;5140917;27;20328;-75
2022/03/14 01:08:18;;;;;;;;;;;;;;;;;;5141169;27;19962;-74
2022/03/14 01:10:44;;;;;;;;;;;;;;;;;;5158207;27;19934;-75
2022/03/14 01:13:11;;;;;;;;;;;;;;;;;;5157671;27;19907;-74
2022/03/14 01:15:37;;;;;;;;;;;;;;;;;;5158164;27;19907;-74
2022/03/14 01:18:05;;;;;;;;;;;;;;;;;;5141102;27;19907;-74
2022/03/14 01:20:31;;;;;;;;;;;;;;;;;;5141192;27;20344;-75
2022/03/14 01:22:56;;;;;;;;;;;;;;;;;;5158332;27;19950;-74
2022/03/14 01:25:23;;;;;;;;;;;;;;;;;;5158171;27;19950;-74
2022/03/14 01:27:50;;;;;;;;;;;;;;;;;;5154944;27;19916;-76
2022/03/14 01:30:16;;;;;;;;;;;;;;;;;;5158419;27;20266;-74
2022/03/14 01:32:42;;;;;;;;;;;;;;;;;;5162820;27;20007;-75
2022/03/14 01:35:07;;;;;;;;;;;;;;;;;;5157009;27;19949;-75
2022/03/14 01:37:33;;;;;;;;;;;;;;;;;;5156506;27;19907;-75
2022/03/14 01:39:59;;;;;;;;;;;;;;;;;;5156064;27;20114;-74
2022/03/14 01:42:24;;;;;;;;;;;;;;;;;;5157940;27;19911;-74
2022/03/14 01:44:50;;;;;;;;;;;;;;;;;;5157898;27;19993;-75
2022/03/14 01:47:16;;;;;;;;;;;;;;;;;;5157459;27;19921;-75
2022/03/14 01:49:42;;;;;;;;;;;;;;;;;;5158454;27;20223;-74
2022/03/14 01:52:08;;;;;;;;;;;;;;;;;;5158388;27;19903;-75
2022/03/14 01:54:33;;;;;;;;;;;;;;;;;;5157921;27;19998;-75
2022/03/14 01:56:59;;;;;;;;;;;;;;;;;;5139956;27;19989;-75
2022/03/14 01:59:26;;;;;;;;;;;;;;;;;;5140237;27;19946;-74
2022/03/14 02:01:52;;;;;;;;;;;;;;;;;;5122688;27;19915;-76
2022/03/14 02:04:18;;;;;;;;;;;;;;;;;;5162436;27;19935;-75
2022/03/14 02:06:46;;;;;;;;;;;;;;;;;;5123956;27;19903;-75
2022/03/14 02:09:12;;;;;;;;;;;;;;;;;;5158758;27;20009;-75
2022/03/14 02:11:38;;;;;;;;;;;;;;;;;;5139240;27;20314;-75
2022/03/14 02:14:06;;;;;;;;;;;;;;;;;;5157223;27;20039;-75
2022/03/14 02:16:31;;;;;;;;;;;;;;;;;;5159475;27;19907;-74
2022/03/14 02:18:57;;;;;;;;;;;;;;;;;;5161690;27;19914;-74
2022/03/14 02:21:23;;;;;;;;;;;;;;;;;;5162625;27;19907;-75
2022/03/14 02:23:49;;;;;;;;;;;;;;;;;;5143499;27;19914;-76
2022/03/14 02:26:15;;;;;;;;;;;;;;;;;;5126052;27;19907;-75
2022/03/14 02:28:40;;;;;;;;;;;;;;;;;;5143511;27;19960;-75
2022/03/14 02:31:06;;;;;;;;;;;;;;;;;;5161451;27;19914;-75
2022/03/14 02:33:32;;;;;;;;;;;;;;;;;;5143202;27;19925;-75
2022/03/14 02:35:58;;;;;;;;;;;;;;;;;;5161744;27;19917;-75
2022/03/14 02:38:24;;;;;;;;;;;;;;;;;;5161234;27;19993;-76
2022/03/14 02:40:50;;;;;;;;;;;;;;;;;;5162784;27;19993;-76
2022/03/14 02:43:16;;;;;;;;;;;;;;;;;;5145227;27;20388;-75
2022/03/14 02:45:41;;;;;;;;;;;;;;;;;;5160679;27;19952;-75
2022/03/14 02:48:07;;;;;;;;;;;;;;;;;;5160861;27;19922;-74
2022/03/14 02:50:34;;;;;;;;;;;;;;;;;;5142946;27;20071;-75
2022/03/14 02:53:00;;;;;;;;;;;;;;;;;;5125345;27;20022;-75
2022/03/14 02:55:26;;;;;;;;;;;;;;;;;;5140808;27;19949;-75
2022/03/14 02:57:52;;;;;;;;;;;;;;;;;;5157893;27;19942;-74
2022/03/14 03:00:18;;;;;;;;;;;;;;;;;;5139517;27;19907;-75
2022/03/14 03:02:44;;;;;;;;;;;;;;;;;;5143335;27;19907;-75
2022/03/14 03:05:10;;;;;;;;;;;;;;;;;;5161426;27;19963;-75
2022/03/14 03:07:39;;;;;;;;;;;;;;;;;;5159355;27;20308;-75
2022/03/14 03:10:07;;;;;;;;;;;;;;;;;;5143180;27;19915;-76
2022/03/14 03:12:35;;;;;;;;;;;;;;;;;;5163859;27;19911;-75
2022/03/14 03:15:01;;;;;;;;;;;;;;;;;;5162213;27;19911;-74
2022/03/14 03:17:27;;;;;;;;;;;;;;;;;;5164804;27;20198;-75
2022/03/14 03:19:53;;;;;;;;;;;;;;;;;;5142621;27;19949;-74
2022/03/14 03:22:18;;;;;;;;;;;;;;;;;;5161078;27;19907;-76
2022/03/14 03:24:44;;;;;;;;;;;;;;;;;;5143837;27;19934;-75
2022/03/14 03:27:10;;;;;;;;;;;;;;;;;;5127414;27;20005;-75
2022/03/14 03:29:36;;;;;;;;;;;;;;;;;;5159994;27;19971;-74
2022/03/14 03:32:02;;;;;;;;;;;;;;;;;;5123946;27;20236;-75
2022/03/14 03:34:28;;;;;;;;;;;;;;;;;;5123401;27;19908;-76
2022/03/14 03:36:53;;;;;;;;;;;;;;;;;;5159484;27;19911;-74
2022/03/14 03:39:20;;;;;;;;;;;;;;;;;;5142013;27;20003;-75
2022/03/14 03:41:45;;;;;;;;;;;;;;;;;;5123745;27;19907;-77
2022/03/14 03:44:11;;;;;;;;;;;;;;;;;;5159553;27;19907;-75
2022/03/14 03:46:37;;;;;;;;;;;;;;;;;;5142216;27;19936;-74
2022/03/14 03:49:03;;;;;;;;;;;;;;;;;;5155282;27;19919;-77
2022/03/14 03:51:29;;;;;;;;;;;;;;;;;;5159457;27;19907;-76
2022/03/14 03:53:54;;;;;;;;;;;;;;;;;;5159901;27;19959;-75
2022/03/14 03:56:20;;;;;;;;;;;;;;;;;;5161049;27;20356;-76
2022/03/14 03:58:47;;;;;;;;;;;;;;;;;;5159480;27;19930;-74
2022/03/14 04:01:19;;;;;;;;;;;;;;;;;;5159044;27;19911;-75
2022/03/14 04:03:54;;;;;;;;;;;;;;;;;;5142021;27;19907;-75
2022/03/14 04:06:20;;;;;;;;;;;;;;;;;;5158555;27;20181;-75
2022/03/14 04:08:50;;;;;;;;;;;;;;;;;;5142207;27;20186;-77
2022/03/14 04:11:23;;;;;;;;;;;;;;;;;;5161240;27;19915;-76
2022/03/14 04:13:49;;;;;;;;;;;;;;;;;;5159093;27;20014;-75
2022/03/14 04:16:17;;;;;;;;;;;;;;;;;;5159944;27;19950;-75
2022/03/14 04:18:44;;;;;;;;;;;;;;;;;;5141828;27;20009;-76
2022/03/14 04:21:11;;;;;;;;;;;;;;;;;;5156607;27;20302;-73
2022/03/14 04:23:37;;;;;;;;;;;;;;;;;;5154894;27;20236;-76
2022/03/14 04:26:03;;;;;;;;;;;;;;;;;;5158959;27;19907;-77
2022/03/14 04:28:30;;;;;;;;;;;;;;;;;;5142657;27;19915;-77
2022/03/14 04:30:55;;;;;;;;;;;;;;;;;;5163419;27;19987;-76
2022/03/14 04:33:21;;;;;;;;;;;;;;;;;;5141867;27;19907;-75
2022/03/14 04:35:51;;;;;;;;;;;;;;;;;;5141165;27;19907;-74
2022/03/14 04:38:17;;;;;;;;;;;;;;;;;;5156411;27;20240;-73
2022/03/14 04:40:44;;;;;;;;;;;;;;;;;;5155606;27;19907;-74
2022/03/14 04:43:10;;;;;;;;;;;;;;;;;;5141145;27;19911;-74
2022/03/14 04:45:36;;;;;;;;;;;;;;;;;;5141839;27;19907;-75
2022/03/14 04:48:03;;;;;;;;;;;;;;;;;;5164011;27;19981;-76
2022/03/14 04:50:29;;;;;;;;;;;;;;;;;;5161079;22;20257;-75
2022/03/14 04:52:55;;;;;;;;;;;;;;;;;;5124568;27;19997;-75
2022/03/14 04:55:21;;;;;;;;;;;;;;;;;;5122179;27;19931;-76
2022/03/14 04:57:47;;;;;;;;;;;;;;;;;;5142215;27;20301;-76
2022/03/14 05:00:13;;;;;;;;;;;;;;;;;;5139392;27;19908;-75
2022/03/14 05:02:39;;;;;;;;;;;;;;;;;;5137752;27;20317;-76
2022/03/14 05:05:04;;;;;;;;;;;;;;;;;;5139354;27;20213;-74
2022/03/14 05:07:30;;;;;;;;;;;;;;;;;;5138186;27;20201;-75
2022/03/14 05:09:56;;;;;;;;;;;;;;;;;;5139225;27;19935;-75
2022/03/14 05:12:24;;;;;;;;;;;;;;;;;;5138920;27;19915;-74
2022/03/14 05:14:49;;;;;;;;;;;;;;;;;;5139602;27;19931;-75
2022/03/14 05:17:17;;;;;;;;;;;;;;;;;;5142079;27;19942;-75
2022/03/14 05:19:43;;;;;;;;;;;;;;;;;;5121877;28;20032;-76
2022/03/14 05:22:10;;;;;;;;;;;;;;;;;;5139364;28;19950;-76
2022/03/14 05:24:36;;;;;;;;;;;;;;;;;;5138800;28;19907;-75
2022/03/14 05:29:29;;;;;;;;;;;;;;;;;;5116250;28;19924;-76
2022/03/14 05:31:57;;;;;;;;;;;;;;;;;;5120311;28;20336;-75
2022/03/14 05:34:23;;;;;;;;;;;;;;;;;;5104294;28;19961;-76
2022/03/14 05:36:49;;;;;;;;;;;;;;;;;;5085423;28;20332;-76
2022/03/14 05:39:15;;;;;;;;;;;;;;;;;;5100543;28;19911;-75
2022/03/14 05:41:41;;;;;;;;;;;;;;;;;;5099706;28;19968;-76
2022/03/14 05:44:07;;;;;;;;;;;;;;;;;;5150595;22;19924;-75
2022/03/14 05:46:32;;;;;;;;;;;;;;;;;;5118973;28;19912;-76
2022/03/14 05:48:58;;;;;;;;;;;;;;;;;;5102300;28;19962;-75
2022/03/14 05:51:25;;;;;;;;;;;;;;;;;;5104775;28;19981;-76
2022/03/14 05:53:50;;;;;;;;;;;;;;;;;;5121432;28;19972;-76
2022/03/14 05:56:16;;;;;;;;;;;;;;;;;;5120893;28;19908;-76
2022/03/14 05:58:42;;;;;;;;;;;;;;;;;;5101547;28;19919;-75
2022/03/14 06:01:08;;;;;;;;;;;;;;;;;;5116075;28;19908;-74
2022/03/14 06:03:36;;;;;;;;;;;;;;;;;;5121853;22;19923;-74
2022/03/14 06:06:02;;;;;;;;;;;;;;;;;;5140325;27;20008;-76
2022/03/14 06:08:28;;;;;;;;;;;;;;;;;;5147004;22;19927;-75
2022/03/14 06:10:54;;;;;;;;;;;;;;;;;;5142184;27;19974;-76
2022/03/14 06:13:20;;;;;;;;;;;;;;;;;;5103096;27;19908;-74
2022/03/14 06:15:47;;;;;;;;;;;;;;;;;;5141190;27;19908;-74
2022/03/14 06:18:13;;;;;;;;;;;;;;;;;;5124271;27;19950;-75
2022/03/14 06:20:39;;;;;;;;;;;;;;;;;;5122349;27;19907;-75
2022/03/14 06:23:04;;;;;;;;;;;;;;;;;;5121953;27;19907;-76
2022/03/14 06:25:30;;;;;;;;;;;;;;;;;;5121952;27;20090;-73
2022/03/14 06:27:56;;;;;;;;;;;;;;;;;;5140606;27;19920;-74
2022/03/14 06:30:22;;;;;;;;;;;;;;;;;;5140942;27;19907;-73
2022/03/14 06:32:49;;;;;;;;;;;;;;;;;;5120226;27;19915;-72
2022/03/14 06:35:16;;;;;;;;;;;;;;;;;;5140039;27;20006;-73
2022/03/14 06:37:43;;;;;;;;;;;;;;;;;;5122420;27;20351;-75
2022/03/14 06:40:09;;;;;;;;;;;;;;;;;;5141677;27;20425;-76
2022/03/14 06:42:41;;;;;;;;;;;;;;;;;;5140164;27;20005;-75
2022/03/14 06:45:07;;;;;;;;;;;;;;;;;;5122338;27;19911;-74
2022/03/14 06:47:33;;;;;;;;;;;;;;;;;;5121885;27;20202;-74
2022/03/14 06:49:58;;;;;;;;;;;;;;;;;;5124225;27;19907;-75
2022/03/14 06:52:27;;;;;;;;;;;;;;;;;;5141367;27;19943;-75
2022/03/14 06:54:52;;;;;;;;;;;;;;;;;;5141643;27;19915;-75
2022/03/14 06:57:19;;;;;;;;;;;;;;;;;;5123522;27;20411;-75
2022/03/14 06:59:45;;;;;;;;;;;;;;;;;;5142607;27;19914;-75
2022/03/14 07:02:11;;;;;;;;;;;;;;;;;;5140639;27;19908;-74
2022/03/14 07:04:37;;;;;;;;;;;;;;;;;;5121868;27;19938;-75
2022/03/14 07:07:04;;;;;;;;;;;;;;;;;;5113804;22;19975;-74
2022/03/14 07:09:30;;;;;;;;;;;;;;;;;;5156385;27;19923;-75
2022/03/14 07:11:56;;;;;;;;;;;;;;;;;;5160297;27;19908;-74
2022/03/14 07:14:21;;;;;;;;;;;;;;;;;;5159117;27;19907;-74
2022/03/14 07:16:47;;;;;;;;;;;;;;;;;;5159162;27;19907;-74
2022/03/14 07:19:13;;;;;;;;;;;;;;;;;;5161110;27;19907;-75
2022/03/14 07:21:39;;;;;;;;;;;;;;;;;;5161996;27;19915;-74
2022/03/14 07:24:05;;;;;;;;;;;;;;;;;;5164335;27;19918;-75
2022/03/14 07:26:30;;;;;;;;;;;;;;;;;;5159328;27;19907;-75
2022/03/14 07:28:56;;;;;;;;;;;;;;;;;;5161471;27;19922;-75
2022/03/14 07:31:22;;;;;;;;;;;;;;;;;;5161038;27;20204;-74
2022/03/14 07:33:48;;;;;;;;;;;;;;;;;;5158357;27;19907;-75
2022/03/14 07:36:14;;;;;;;;;;;;;;;;;;5158360;27;19907;-76
2022/03/14 07:38:40;;;;;;;;;;;;;;;;;;5159042;27;19910;-75
2022/03/14 07:41:07;;;;;;;;;;;;;;;;;;5160466;27;19923;-76
2022/03/14 07:43:33;;;;;;;;;;;;;;;;;;5160118;27;19914;-74
2022/03/14 07:45:59;;;;;;;;;;;;;;;;;;5159292;27;19911;-75
2022/03/14 07:48:24;;;;;;;;;;;;;;;;;;5161185;27;19915;-74
2022/03/14 07:50:52;;;;;;;;;;;;;;;;;;5161870;27;19957;-74
2022/03/14 07:53:18;;;;;;;;;;;;;;;;;;5159092;27;19907;-74
2022/03/14 07:55:43;;;;;;;;;;;;;;;;;;5159662;27;19914;-74
2022/03/14 07:58:09;;;;;;;;;;;;;;;;;;5159024;27;20288;-73
2022/03/14 08:00:35;;;;;;;;;;;;;;;;;;5158577;27;19907;-75
2022/03/14 08:03:01;;;;;;;;;;;;;;;;;;5159778;27;20150;-75
2022/03/14 08:05:27;;;;;;;;;;;;;;;;;;5166314;27;20278;-75
2022/03/14 08:07:56;;;;;;;;;;;;;;;;;;5158299;27;19919;-75
2022/03/14 08:10:21;;;;;;;;;;;;;;;;;;5160837;27;19930;-76
2022/03/14 08:12:50;;;;;;;;;;;;;;;;;;5160671;27;19907;-76
2022/03/14 08:15:16;;;;;;;;;;;;;;;;;;5159262;27;19908;-75
2022/03/14 08:17:41;;;;;;;;;;;;;;;;;;5159208;27;19914;-75
2022/03/14 08:20:07;;;;;;;;;;;;;;;;;;5159509;27;19943;-76
2022/03/14 08:22:33;;;;;;;;;;;;;;;;;;5157303;27;19908;-75
2022/03/14 08:24:59;;;;;;;;;;;;;;;;;;5160366;27;19911;-73
2022/03/14 08:27:25;;;;;;;;;;;;;;;;;;5158507;27;19921;-75
2022/03/14 08:29:50;;;;;;;;;;;;;;;;;;5158365;27;20217;-75
2022/03/14 08:32:22;;;;;;;;;;;;;;;;;;5158613;27;20080;-75
2022/03/14 08:34:49;;;;;;;;;;;;;;;;;;5159954;27;19986;-74
2022/03/14 08:37:15;;;;;;;;;;;;;;;;;;5159871;27;19907;-74
2022/03/14 08:39:40;;;;;;;;;;;;;;;;;;5159424;27;20006;-75
2022/03/14 08:42:07;;;;;;;;;;;;;;;;;;5158939;27;19966;-75
2022/03/14 08:44:33;;;;;;;;;;;;;;;;;;5140297;27;20313;-75
2022/03/14 08:46:59;;;;;;;;;;;;;;;;;;5160012;27;19911;-75
2022/03/14 08:49:25;;;;;;;;;;;;;;;;;;5158026;27;20301;-75
2022/03/14 08:51:51;;;;;;;;;;;;;;;;;;5158365;27;19930;-75
2022/03/14 08:54:16;;;;;;;;;;;;;;;;;;5158176;27;19907;-75
2022/03/14 08:56:42;;;;;;;;;;;;;;;;;;5156929;27;19960;-75
2022/03/14 08:59:11;;;;;;;;;;;;;;;;;;5157349;27;20009;-76
2022/03/14 09:01:38;;;;;;;;;;;;;;;;;;5158586;27;19939;-75
2022/03/14 09:04:03;;;;;;;;;;;;;;;;;;5156680;27;20002;-75
2022/03/14 09:06:31;;;;;;;;;;;;;;;;;;5158910;27;19914;-75
2022/03/14 09:08:56;;;;;;;;;;;;;;;;;;5158550;27;19923;-75
2022/03/14 09:11:23;;;;;;;;;;;;;;;;;;5158864;27;19911;-75
2022/03/14 09:13:49;;;;;;;;;;;;;;;;;;5156672;27;20309;-74
2022/03/14 09:16:15;;;;;;;;;;;;;;;;;;5160540;27;19950;-74
2022/03/14 09:18:41;;;;;;;;;;;;;;;;;;5160379;27;20009;-75
2022/03/14 09:21:06;;;;;;;;;;;;;;;;;;5159197;27;19957;-75
2022/03/14 09:23:35;;;;;;;;;;;;;;;;;;5158078;27;19998;-75
2022/03/14 09:26:01;;;;;;;;;;;;;;;;;;5157318;27;19907;-75
2022/03/14 09:28:27;;;;;;;;;;;;;;;;;;5158460;27;19924;-75
2022/03/14 09:30:53;;;;;;;;;;;;;;;;;;5158296;27;19961;-74
2022/03/14 09:33:19;;;;;;;;;;;;;;;;;;5158361;27;19919;-75
2022/03/14 09:35:45;;;;;;;;;;;;;;;;;;5157624;27;19907;-75
2022/03/14 09:38:10;;;;;;;;;;;;;;;;;;5158702;27;20300;-74
2022/03/14 09:40:36;;;;;;;;;;;;;;;;;;5158380;27;19907;-75
2022/03/14 09:43:02;;;;;;;;;;;;;;;;;;5140072;27;19908;-75
2022/03/14 09:45:28;;;;;;;;;;;;;;;;;;5158716;27;20340;-75
2022/03/14 09:47:53;;;;;;;;;;;;;;;;;;5157659;27;19921;-75
2022/03/14 09:50:19;;;;;;;;;;;;;;;;;;5158361;27;19911;-75
2022/03/14 09:52:45;;;;;;;;;;;;;;;;;;5159007;27;19915;-75
2022/03/14 09:55:11;;;;;;;;;;;;;;;;;;5157120;27;20305;-75
2022/03/14 09:57:37;;;;;;;;;;;;;;;;;;5158408;27;19930;-75
2022/03/14 10:00:03;;;;;;;;;;;;;;;;;;5158947;27;19914;-75
2022/03/14 10:02:28;;;;;;;;;;;;;;;;;;5154749;27;19907;-75
2022/03/14 10:04:54;;;;;;;;;;;;;;;;;;5158787;27;19930;-75
2022/03/14 10:07:21;;;;;;;;;;;;;;;;;;5158530;27;20030;-74
2022/03/14 10:09:47;;;;;;;;;;;;;;;;;;5159071;27;19908;-75
2022/03/14 10:12:14;;;;;;;;;;;;;;;;;;5160203;27;19914;-74
2022/03/14 10:14:40;;;;;;;;;;;;;;;;;;5157423;27;19915;-75
2022/03/14 10:17:05;;;;;;;;;;;;;;;;;;5158163;27;19914;-75
2022/03/14 10:19:31;;;;;;;;;;;;;;;;;;5158042;27;19907;-75
2022/03/14 10:21:57;;;;;;;;;;;;;;;;;;5156919;27;19907;-75
2022/03/14 10:24:23;;;;;;;;;;;;;;;;;;5158401;27;20225;-75
2022/03/14 10:26:48;;;;;;;;;;;;;;;;;;5159304;27;19914;-75
2022/03/14 10:29:14;;;;;;;;;;;;;;;;;;5158046;27;19966;-75
2022/03/14 10:31:40;;;;;;;;;;;;;;;;;;5158550;27;20005;-75
2022/03/14 10:34:06;;;;;;;;;;;;;;;;;;5157856;27;20273;-74
2022/03/14 10:36:31;;;;;;;;;;;;;;;;;;5157135;27;19951;-75
2022/03/14 10:38:57;;;;;;;;;;;;;;;;;;5160912;27;19915;-76
2022/03/14 10:41:23;;;;;;;;;;;;;;;;;;5161979;27;19914;-76
2022/03/14 10:43:51;;;;;;;;;;;;;;;;;;5166530;27;19913;-75
2022/03/14 10:46:17;;;;;;;;;;;;;;;;;;5160818;27;19907;-75
2022/03/14 10:48:45;;;;;;;;;;;;;;;;;;5159611;27;20304;-75
2022/03/14 10:51:11;;;;;;;;;;;;;;;;;;5161575;27;19959;-75
2022/03/14 10:53:37;;;;;;;;;;;;;;;;;;5161981;27;19907;-75
2022/03/14 10:56:03;;;;;;;;;;;;;;;;;;5160784;27;20246;-75
2022/03/14 10:58:28;;;;;;;;;;;;;;;;;;5161995;27;19907;-75
2022/03/14 11:00:54;;;;;;;;;;;;;;;;;;5161929;27;19911;-75
2022/03/14 11:03:20;;;;;;;;;;;;;;;;;;5161278;27;19994;-75
2022/03/14 11:05:45;;;;;;;;;;;;;;;;;;5161724;27;19907;-75
2022/03/14 11:08:11;;;;;;;;;;;;;;;;;;5161816;27;20009;-74
2022/03/14 11:10:37;;;;;;;;;;;;;;;;;;5160043;27;19907;-75
2022/03/14 11:13:03;;;;;;;;;;;;;;;;;;5159839;27;19913;-75
2022/03/14 11:15:28;;;;;;;;;;;;;;;;;;5161469;27;19914;-75
2022/03/14 11:17:54;;;;;;;;;;;;;;;;;;5160775;27;19991;-75
2022/03/14 11:20:20;;;;;;;;;;;;;;;;;;5160728;27;19910;-75
2022/03/14 11:22:45;;;;;;;;;;;;;;;;;;5159669;27;19908;-75
2022/03/14 11:25:11;;;;;;;;;;;;;;;;;;5160144;27;20006;-75
2022/03/14 11:27:37;;;;;;;;;;;;;;;;;;5160054;27;20213;-75
2022/03/14 11:30:03;;;;;;;;;;;;;;;;;;5160919;27;20384;-75
2022/03/14 11:32:28;;;;;;;;;;;;;;;;;;5161128;27;19914;-75
2022/03/14 11:34:55;;;;;;;;;;;;;;;;;;5142672;27;19939;-75
2022/03/14 11:37:21;;;;;;;;;;;;;;;;;;5161107;27;19911;-76
2022/03/14 11:39:47;;;;;;;;;;;;;;;;;;5159935;27;19951;-75
2022/03/14 11:42:12;;;;;;;;;;;;;;;;;;5160801;27;19907;-75
2022/03/14 11:44:38;;;;;;;;;;;;;;;;;;5159082;27;19998;-75
2022/03/14 11:47:04;;;;;;;;;;;;;;;;;;5160227;27;19907;-75
2022/03/14 11:49:30;;;;;;;;;;;;;;;;;;5159893;27;19917;-75
2022/03/14 11:51:55;;;;;;;;;;;;;;;;;;5159816;27;19952;-75
2022/03/14 11:54:21;;;;;;;;;;;;;;;;;;5159076;27;19912;-75
2022/03/14 11:56:47;;;;;;;;;;;;;;;;;;5160731;27;20308;-75
2022/03/14 11:59:13;;;;;;;;;;;;;;;;;;5159269;27;19907;-75
2022/03/14 12:01:39;;;;;;;;;;;;;;;;;;5160562;27;19968;-75
2022/03/14 12:04:09;;;;;;;;;;;;;;;;;;5160565;27;19918;-75
2022/03/14 12:06:36;;;;;;;;;;;;;;;;;;5159952;27;20213;-75
2022/03/14 12:09:01;;;;;;;;;;;;;;;;;;5157683;27;19919;-75
2022/03/14 12:11:27;;;;;;;;;;;;;;;;;;5157510;27;20018;-75
2022/03/14 12:13:53;;;;;;;;;;;;;;;;;;5161421;27;19907;-74
2022/03/14 12:16:18;;;;;;;;;;;;;;;;;;5157568;27;19914;-75
2022/03/14 12:18:44;;;;;;;;;;;;;;;;;;5157885;27;20305;-75
2022/03/14 12:21:10;;;;;;;;;;;;;;;;;;5158572;27;19911;-75
2022/03/14 12:23:35;;;;;;;;;;;;;;;;;;5157921;27;19911;-74
2022/03/14 12:26:01;;;;;;;;;;;;;;;;;;5157849;27;19911;-75
2022/03/14 12:28:27;;;;;;;;;;;;;;;;;;5139893;27;19915;-75
2022/03/14 12:30:52;;;;;;;;;;;;;;;;;;5158019;27;20220;-75
2022/03/14 12:33:18;;;;;;;;;;;;;;;;;;5158051;27;20300;-75
2022/03/14 12:35:44;;;;;;;;;;;;;;;;;;5158701;27;19914;-75
2022/03/14 12:38:10;;;;;;;;;;;;;;;;;;5158373;27;20262;-75
2022/03/14 12:40:35;;;;;;;;;;;;;;;;;;5159839;27;19907;-75
2022/03/14 12:43:01;;;;;;;;;;;;;;;;;;5159908;27;19907;-75
2022/03/14 12:45:27;;;;;;;;;;;;;;;;;;5159604;27;19907;-75
2022/03/14 12:47:53;;;;;;;;;;;;;;;;;;5159677;27;19958;-74
2022/03/14 12:50:18;;;;;;;;;;;;;;;;;;5159668;27;19907;-75
2022/03/14 12:52:44;;;;;;;;;;;;;;;;;;5158813;27;20292;-75
2022/03/14 12:55:10;;;;;;;;;;;;;;;;;;5159779;27;20051;-75
2022/03/14 12:57:36;;;;;;;;;;;;;;;;;;5159650;27;19915;-75
2022/03/14 13:00:04;;;;;;;;;;;;;;;;;;5158613;27;19907;-75
2022/03/14 13:02:29;;;;;;;;;;;;;;;;;;5158161;27;19915;-75
2022/03/14 13:04:55;;;;;;;;;;;;;;;;;;5159204;27;19908;-75
2022/03/14 13:07:21;;;;;;;;;;;;;;;;;;5159053;27;20345;-75
2022/03/14 13:09:47;;;;;;;;;;;;;;;;;;5158972;27;19946;-75
2022/03/14 13:12:13;;;;;;;;;;;;;;;;;;5158348;27;19914;-75
2022/03/14 13:14:41;;;;;;;;;;;;;;;;;;5157798;27;19959;-75
2022/03/14 13:17:08;;;;;;;;;;;;;;;;;;5159366;27;19907;-76
2022/03/14 13:19:35;;;;;;;;;;;;;;;;;;5158792;27;19914;-75
2022/03/14 13:22:00;;;;;;;;;;;;;;;;;;5158821;27;19986;-75
2022/03/14 13:24:27;;;;;;;;;;;;;;;;;;5159399;27;20291;-75
2022/03/14 13:26:52;;;;;;;;;;;;;;;;;;5146822;27;19907;-75
2022/03/14 13:29:19;;;;;;;;;;;;;;;;;;5158818;27;19961;-75
2022/03/14 13:31:44;;;;;;;;;;;;;;;;;;5157589;27;19907;-75
2022/03/14 13:34:10;;;;;;;;;;;;;;;;;;5159367;27;19914;-75
2022/03/14 13:36:38;;;;;;;;;;;;;;;;;;5159264;27;20309;-75
2022/03/14 13:39:03;;;;;;;;;;;;;;;;;;5158553;27;20236;-75
2022/03/14 13:41:29;;;;;;;;;;;;;;;;;;5159881;27;19930;-75
2022/03/14 13:43:55;;;;;;;;;;;;;;;;;;5159391;27;20190;-75
2022/03/14 13:46:21;;;;;;;;;;;;;;;;;;5159215;27;19907;-75
2022/03/14 13:48:47;;;;;;;;;;;;;;;;;;5159182;27;19915;-75
2022/03/14 13:51:13;;;;;;;;;;;;;;;;;;5158078;27;20212;-75
2022/03/14 13:53:38;;;;;;;;;;;;;;;;;;5158507;27;19921;-75
2022/03/14 13:56:04;;;;;;;;;;;;;;;;;;5159110;27;19907;-75
2022/03/14 13:58:30;;;;;;;;;;;;;;;;;;5158987;27;20362;-75
2022/03/14 14:00:55;;;;;;;;;;;;;;;;;;5159044;27;19914;-75
2022/03/14 14:03:21;;;;;;;;;;;;;;;;;;5158346;27;20228;-75
2022/03/14 14:05:47;;;;;;;;;;;;;;;;;;5158992;27;19907;-75
2022/03/14 14:08:13;;;;;;;;;;;;;;;;;;5157618;27;19919;-75
2022/03/14 14:10:38;;;;;;;;;;;;;;;;;;5157316;27;19925;-75
2022/03/14 14:13:04;;;;;;;;;;;;;;;;;;5160756;27;20324;-75
2022/03/14 14:15:30;;;;;;;;;;;;;;;;;;5161681;27;19997;-76
2022/03/14 14:17:55;;;;;;;;;;;;;;;;;;5162262;27;19907;-76
2022/03/14 14:20:21;;;;;;;;;;;;;;;;;;5162115;27;19907;-76
2022/03/14 14:22:47;;;;;;;;;;;;;;;;;;5144424;27;19952;-75
2022/03/14 14:25:13;;;;;;;;;;;;;;;;;;5162698;27;19907;-76
2022/03/14 14:27:38;;;;;;;;;;;;;;;;;;5161322;27;20328;-77
2022/03/14 14:30:04;;;;;;;;;;;;;;;;;;5161424;27;20014;-76
2022/03/14 14:32:30;;;;;;;;;;;;;;;;;;5162417;27;19915;-77
2022/03/14 14:34:57;;;;;;;;;;;;;;;;;;5161198;27;19907;-76
2022/03/14 14:37:24;;;;;;;;;;;;;;;;;;5161608;27;19959;-75
2022/03/14 14:39:50;;;;;;;;;;;;;;;;;;5161118;27;19911;-76
2022/03/14 14:42:16;;;;;;;;;;;;;;;;;;5162043;27;19914;-75
2022/03/14 14:44:42;;;;;;;;;;;;;;;;;;5161671;27;20263;-75
2022/03/14 14:47:08;;;;;;;;;;;;;;;;;;5161625;27;19907;-75
2022/03/14 14:49:33;;;;;;;;;;;;;;;;;;5162120;27;20216;-75
2022/03/14 14:51:59;;;;;;;;;;;;;;;;;;5162126;27;19911;-75
2022/03/14 14:54:25;;;;;;;;;;;;;;;;;;5162109;27;20197;-75
2022/03/14 14:56:50;;;;;;;;;;;;;;;;;;5160870;27;19951;-75
2022/03/14 14:59:17;;;;;;;;;;;;;;;;;;5143457;27;20300;-76
2022/03/14 15:01:43;;;;;;;;;;;;;;;;;;5161068;27;19907;-75
2022/03/14 15:04:10;;;;;;;;;;;;;;;;;;5161887;27;19907;-75
2022/03/14 15:06:36;;;;;;;;;;;;;;;;;;5161271;27;19951;-75
2022/03/14 15:09:02;;;;;;;;;;;;;;;;;;5161095;27;20011;-75
2022/03/14 15:11:28;;;;;;;;;;;;;;;;;;5161767;27;19914;-75
2022/03/14 15:13:53;;;;;;;;;;;;;;;;;;5160345;27;19907;-75
2022/03/14 15:16:19;;;;;;;;;;;;;;;;;;5161639;27;19911;-74
2022/03/14 15:18:45;;;;;;;;;;;;;;;;;;5161681;27;19947;-75
2022/03/14 15:21:11;;;;;;;;;;;;;;;;;;5160779;27;19914;-75
2022/03/14 15:23:37;;;;;;;;;;;;;;;;;;5159946;27;19907;-75
2022/03/14 15:26:03;;;;;;;;;;;;;;;;;;5160240;27;19914;-75
2022/03/14 15:28:29;;;;;;;;;;;;;;;;;;5161417;27;20245;-75
2022/03/14 15:30:55;;;;;;;;;;;;;;;;;;5161503;27;19907;-75
2022/03/14 15:33:22;;;;;;;;;;;;;;;;;;5161409;27;19907;-75
2022/03/14 15:35:48;;;;;;;;;;;;;;;;;;5161834;27;19907;-75
2022/03/14 15:38:14;;;;;;;;;;;;;;;;;;5160741;27;19907;-75
2022/03/14 15:40:42;;;;;;;;;;;;;;;;;;5142732;27;19950;-75
2022/03/14 15:43:07;;;;;;;;;;;;;;;;;;5161227;27;19909;-75
2022/03/14 15:45:33;;;;;;;;;;;;;;;;;;5161140;27;20311;-75
2022/03/14 15:48:00;;;;;;;;;;;;;;;;;;5160990;27;19922;-75
2022/03/14 15:50:25;;;;;;;;;;;;;;;;;;5159265;27;19907;-75
2022/03/14 15:52:51;;;;;;;;;;;;;;;;;;5160506;27;19913;-75
2022/03/14 15:55:18;;;;;;;;;;;;;;;;;;5159796;27;19907;-75
2022/03/14 15:57:43;;;;;;;;;;;;;;;;;;5160960;27;20393;-75
2022/03/14 16:00:10;;;;;;;;;;;;;;;;;;5159110;27;19908;-75
2022/03/14 16:02:37;;;;;;;;;;;;;;;;;;5159668;27;19907;-75
2022/03/14 16:05:02;;;;;;;;;;;;;;;;;;5159539;27;19907;-75
2022/03/14 16:07:28;;;;;;;;;;;;;;;;;;5160028;27;19973;-75
2022/03/14 16:09:59;;;;;;;;;;;;;;;;;;5159357;27;19907;-76
2022/03/14 16:12:24;;;;;;;;;;;;;;;;;;5160654;27;19987;-75
2022/03/14 16:14:50;;;;;;;;;;;;;;;;;;5159195;27;20204;-76
2022/03/14 16:17:16;;;;;;;;;;;;;;;;;;5160547;27;19915;-75
2022/03/14 16:19:42;;;;;;;;;;;;;;;;;;5160418;27;19915;-76
2022/03/14 16:22:08;;;;;;;;;;;;;;;;;;5160467;27;19989;-76
2022/03/14 16:24:34;;;;;;;;;;;;;;;;;;5159181;27;19953;-75
2022/03/14 16:26:59;;;;;;;;;;;;;;;;;;5160329;27;20220;-76
2022/03/14 16:29:25;;;;;;;;;;;;;;;;;;5159587;27;19922;-76
2022/03/14 16:31:51;;;;;;;;;;;;;;;;;;5159060;27;20258;-76
2022/03/14 16:34:17;;;;;;;;;;;;;;;;;;5159388;27;20309;-75
2022/03/14 16:36:43;;;;;;;;;;;;;;;;;;5158340;27;19911;-75
2022/03/14 16:39:08;;;;;;;;;;;;;;;;;;5158775;27;19914;-75
2022/03/14 16:41:34;;;;;;;;;;;;;;;;;;5159960;27;20377;-74